createdAt,value
2022-10-18T00:00:58.020Z,101848.53
2022-10-18T00:03:25.822Z,101845.44
2022-10-18T00:05:53.812Z,101849.16
2022-10-18T00:08:22.891Z,101848.13
2022-10-18T00:10:51.217Z,101842.22
2022-10-18T00:13:19.149Z,101848.22
2022-10-18T00:15:51.286Z,101846.72
2022-10-18T00:18:19.562Z,101851.13
2022-10-18T00:20:56.769Z,101848.44
2022-10-18T00:23:26.051Z,101844.16
2022-10-18T00:26:00.666Z,101841.88
2022-10-18T00:28:28.885Z,101855.00
2022-10-18T00:30:56.702Z,101847.88
2022-10-18T00:33:24.511Z,101849.81
2022-10-18T00:35:52.194Z,101851.06
2022-10-18T00:38:19.960Z,101838.00
2022-10-18T00:40:49.019Z,101849.88
2022-10-18T00:43:19.200Z,101847.28
2022-10-18T00:45:46.930Z,101847.28
2022-10-18T00:48:16.453Z,101846.41
2022-10-18T00:50:44.598Z,101842.66
2022-10-18T00:53:17.285Z,101843.41
2022-10-18T00:55:45.416Z,101841.22
2022-10-18T00:58:17.991Z,101840.53
2022-10-18T01:00:45.861Z,101844.94
2022-10-18T01:03:13.604Z,101839.00
2022-10-18T01:05:44.926Z,101843.63
2022-10-18T01:08:29.816Z,101849.81
2022-10-18T01:11:11.025Z,101850.56
2022-10-18T01:13:51.341Z,101850.56
2022-10-18T01:16:28.218Z,101843.16
2022-10-18T01:19:02.579Z,101845.34
2022-10-18T01:21:39.301Z,101838.91
2022-10-18T01:24:44.948Z,101842.84
2022-10-18T01:27:28.960Z,101845.34
2022-10-18T01:30:13.463Z,101839.94
2022-10-18T01:32:48.293Z,101837.38
2022-10-18T01:35:21.040Z,101838.41
2022-10-18T01:37:51.823Z,101844.88
2022-10-18T01:40:21.918Z,101836.88
2022-10-18T01:42:50.907Z,101840.84
2022-10-18T01:45:20.092Z,101844.47
2022-10-18T01:47:50.605Z,101848.25
2022-10-18T01:50:29.613Z,101839.94
2022-10-18T01:52:57.576Z,101839.09
2022-10-18T01:55:30.413Z,101837.66
2022-10-18T01:58:06.922Z,101846.63
2022-10-18T02:00:42.069Z,101845.16
2022-10-18T02:03:18.630Z,101846.53
2022-10-18T02:05:52.729Z,101845.84
2022-10-18T02:08:29.717Z,101842.09
2022-10-18T02:11:01.915Z,101832.81
2022-10-18T02:13:34.682Z,101835.72
2022-10-18T02:16:07.193Z,101831.28
2022-10-18T02:18:41.397Z,101839.38
2022-10-18T02:21:12.499Z,101837.16
2022-10-18T02:23:40.468Z,101842.06
2022-10-18T02:26:08.412Z,101846.72
2022-10-18T02:28:36.221Z,101833.28
2022-10-18T02:31:12.755Z,101833.78
2022-10-18T02:33:48.907Z,101832.41
2022-10-18T02:36:21.063Z,101837.53
2022-10-18T02:38:51.917Z,101831.38
2022-10-18T02:41:24.081Z,101835.31
2022-10-18T02:43:51.827Z,101824.88
2022-10-18T02:46:19.708Z,101827.03
2022-10-18T02:48:48.856Z,101835.72
2022-10-18T02:51:16.570Z,101837.63
2022-10-18T02:53:44.313Z,101841.88
2022-10-18T02:56:12.035Z,101839.78
2022-10-18T02:58:39.760Z,101841.88
2022-10-18T03:01:07.547Z,101842.56
2022-10-18T03:03:35.289Z,101843.72
2022-10-18T03:06:04.465Z,101849.63
2022-10-18T03:08:32.169Z,101851.81
2022-10-18T03:10:59.965Z,101850.88
2022-10-18T03:13:27.633Z,101848.16
2022-10-18T03:15:55.401Z,101849.97
2022-10-18T03:18:23.061Z,101852.50
2022-10-18T03:20:50.814Z,101848.25
2022-10-18T03:23:19.842Z,101852.56
2022-10-18T03:25:47.597Z,101857.13
2022-10-18T03:28:15.326Z,101848.25
2022-10-18T03:30:43.074Z,101851.72
2022-10-18T03:33:10.757Z,101844.22
2022-10-18T03:35:38.526Z,101841.31
2022-10-18T03:38:06.185Z,101838.22
2022-10-18T03:40:35.301Z,101844.97
2022-10-18T03:43:02.979Z,101843.81
2022-10-18T03:45:31.532Z,101844.97
2022-10-18T03:47:59.534Z,101846.31
2022-10-18T03:50:27.231Z,101853.94
2022-10-18T03:52:55.460Z,101850.47
2022-10-18T03:55:23.454Z,101855.00
2022-10-18T03:57:52.499Z,101854.13
2022-10-18T04:00:20.362Z,101856.16
2022-10-18T04:02:51.912Z,101855.16
2022-10-18T04:05:23.918Z,101855.78
2022-10-18T04:07:51.656Z,101853.31
2022-10-18T04:10:19.838Z,101856.16
2022-10-18T04:12:47.530Z,101854.38
2022-10-18T04:15:16.797Z,101853.06
2022-10-18T04:17:44.535Z,101862.22
2022-10-18T04:20:13.293Z,101875.72
2022-10-18T04:22:40.987Z,101871.22
2022-10-18T04:25:09.001Z,101872.53
2022-10-18T04:27:36.910Z,101868.31
2022-10-18T04:30:05.195Z,101861.84
2022-10-18T04:32:35.368Z,101863.09
2022-10-18T04:35:03.418Z,101867.41
2022-10-18T04:37:31.577Z,101864.00
2022-10-18T04:39:59.522Z,101864.81
2022-10-18T04:42:27.182Z,101875.91
2022-10-18T04:44:54.954Z,101874.66
2022-10-18T04:47:22.721Z,101880.53
2022-10-18T04:49:51.775Z,101887.28
2022-10-18T04:52:19.470Z,101881.59
2022-10-18T04:54:47.155Z,101884.31
2022-10-18T04:57:14.977Z,101883.41
2022-10-18T04:59:42.643Z,101881.19
2022-10-18T05:02:10.338Z,101888.63
2022-10-18T05:04:38.063Z,101884.31
2022-10-18T05:07:07.227Z,101886.25
2022-10-18T05:09:35.017Z,101890.19
2022-10-18T05:12:02.698Z,101875.06
2022-10-18T05:14:30.412Z,101876.41
2022-10-18T05:16:58.137Z,101874.47
2022-10-18T05:19:25.931Z,101885.19
2022-10-18T05:21:53.670Z,101880.28
2022-10-18T05:24:25.453Z,101880.94
2022-10-18T05:26:55.409Z,101883.56
2022-10-18T05:29:23.259Z,101884.34
2022-10-18T05:31:51.205Z,101890.13
2022-10-18T05:34:20.604Z,101885.59
2022-10-18T05:36:49.401Z,101888.97
2022-10-18T05:39:17.105Z,101883.56
2022-10-18T05:41:46.185Z,101877.38
2022-10-18T05:44:13.892Z,101887.69
2022-10-18T05:46:41.614Z,101886.41
2022-10-18T05:49:11.202Z,101885.75
2022-10-18T05:51:38.987Z,101884.41
2022-10-18T05:54:06.742Z,101883.19
2022-10-18T05:56:34.526Z,101882.41
2022-10-18T05:59:05.038Z,101889.75
2022-10-18T06:01:32.719Z,101885.66
2022-10-18T06:04:00.448Z,101869.69
2022-10-18T06:06:28.202Z,101876.91
2022-10-18T06:08:55.922Z,101885.50
2022-10-18T06:11:23.586Z,101884.63
2022-10-18T06:13:52.921Z,101883.38
2022-10-18T06:16:26.201Z,101887.91
2022-10-18T06:18:59.782Z,101881.22
2022-10-18T06:21:27.601Z,101894.34
2022-10-18T06:23:57.600Z,101884.22
2022-10-18T06:26:26.646Z,101883.94
2022-10-18T06:28:54.562Z,101881.44
2022-10-18T06:31:23.804Z,101867.72
2022-10-18T06:33:51.566Z,101870.94
2022-10-18T06:36:22.001Z,101875.25
2022-10-18T06:38:50.556Z,101867.16
2022-10-18T06:41:19.192Z,101866.78
2022-10-18T06:43:49.800Z,101860.41
2022-10-18T06:46:17.753Z,101863.06
2022-10-18T06:48:47.385Z,101865.19
2022-10-18T06:51:15.209Z,101863.44
2022-10-18T06:53:59.297Z,101857.44
2022-10-18T06:56:31.560Z,101860.50
2022-10-18T07:01:32.111Z,101867.16
2022-10-18T07:04:01.269Z,101874.63
2022-10-18T07:06:29.074Z,101883.03
2022-10-18T07:08:57.250Z,101884.66
2022-10-18T07:11:27.114Z,101881.97
2022-10-18T07:14:00.691Z,101883.38
2022-10-18T07:16:28.473Z,101886.53
2022-10-18T07:18:56.250Z,101890.88
2022-10-18T07:21:27.105Z,101885.84
2022-10-18T07:23:55.002Z,101886.06
2022-10-18T07:26:25.201Z,101897.03
2022-10-18T07:28:55.741Z,101890.50
2022-10-18T07:31:24.313Z,101895.72
2022-10-18T07:33:52.175Z,101901.88
2022-10-18T07:36:21.162Z,101890.88
2022-10-18T07:38:51.824Z,101897.66
2022-10-18T07:41:20.273Z,101898.50
2022-10-18T07:43:50.732Z,101908.63
2022-10-18T07:46:19.280Z,101902.19
2022-10-18T07:48:47.180Z,101900.53
2022-10-18T07:51:15.340Z,101904.19
2022-10-18T07:53:43.325Z,101895.88
2022-10-18T07:56:16.272Z,101905.38
2022-10-18T07:58:44.509Z,101898.41
2022-10-18T08:01:12.377Z,101897.25
2022-10-18T08:03:40.830Z,101911.22
2022-10-18T08:06:10.824Z,101908.06
2022-10-18T08:08:39.850Z,101908.72
2022-10-18T08:11:09.715Z,101913.75
2022-10-18T08:13:38.904Z,101907.28
2022-10-18T08:16:08.445Z,101901.25
2022-10-18T08:18:37.025Z,101907.31
2022-10-18T08:21:06.765Z,101908.66
2022-10-18T08:23:35.638Z,101915.91
2022-10-18T08:26:04.227Z,101913.97
2022-10-18T08:28:31.983Z,101910.28
2022-10-18T08:31:04.904Z,101912.44
2022-10-18T08:33:32.789Z,101910.28
2022-10-18T08:36:02.071Z,101915.19
2022-10-18T08:38:31.555Z,101915.69
2022-10-18T08:41:01.041Z,101908.66
2022-10-18T08:46:13.620Z,101927.47
2022-10-18T08:48:45.281Z,101920.91
2022-10-18T08:51:23.427Z,101916.66
2022-10-18T08:53:58.110Z,101916.34
2022-10-18T08:56:26.840Z,101917.47
2022-10-18T08:58:54.516Z,101919.69
2022-10-18T09:01:36.318Z,101908.34
2022-10-18T09:04:34.839Z,101912.69
2022-10-18T09:07:24.026Z,101910.75
2022-10-18T09:09:56.980Z,101914.72
2022-10-18T09:12:52.491Z,101913.16
2022-10-18T09:15:29.330Z,101909.38
2022-10-18T09:18:14.516Z,101908.19
2022-10-18T09:20:51.076Z,101915.91
2022-10-18T09:23:21.453Z,101913.56
2022-10-18T09:25:51.141Z,101915.53
2022-10-18T09:28:33.250Z,101912.53
2022-10-18T09:31:08.196Z,101915.09
2022-10-18T09:33:44.930Z,101918.44
2022-10-18T09:36:18.741Z,101918.41
2022-10-18T09:38:49.478Z,101912.09
2022-10-18T09:41:21.674Z,101917.94
2022-10-18T09:43:53.921Z,101919.78
2022-10-18T09:46:26.138Z,101917.25
2022-10-18T09:49:00.864Z,101919.78
2022-10-18T09:51:34.737Z,101927.09
2022-10-18T09:54:15.088Z,101922.25
2022-10-18T09:56:48.436Z,101915.06
2022-10-18T09:59:30.989Z,101923.75
2022-10-18T10:01:58.635Z,101910.75
2022-10-18T10:04:27.842Z,101908.16
2022-10-18T10:06:57.511Z,101902.47
2022-10-18T10:09:29.441Z,101895.94
2022-10-18T10:11:58.382Z,101902.25
2022-10-18T10:14:27.960Z,101908.97
2022-10-18T10:16:58.689Z,101906.34
2022-10-18T10:19:33.702Z,101908.72
2022-10-18T10:22:06.495Z,101913.38
2022-10-18T10:24:40.010Z,101916.09
2022-10-18T10:27:17.653Z,101912.59
2022-10-18T10:30:02.761Z,101909.53
2022-10-18T10:32:47.057Z,101905.13
2022-10-18T10:35:41.406Z,101904.63
2022-10-18T10:38:23.940Z,101897.31
2022-10-18T10:40:52.036Z,101899.34
2022-10-18T10:43:36.961Z,101905.06
2022-10-18T10:46:09.656Z,101902.28
2022-10-18T10:48:46.568Z,101896.56
2022-10-18T10:51:18.669Z,101904.91
2022-10-18T10:53:52.236Z,101895.34
2022-10-18T10:56:25.129Z,101903.22
2022-10-18T10:58:54.892Z,101900.44
2022-10-18T11:01:32.189Z,101901.50
2022-10-18T11:04:02.558Z,101893.59
2022-10-18T11:06:46.178Z,101890.59
2022-10-18T11:09:25.410Z,101883.44
2022-10-18T11:12:02.545Z,101886.78
2022-10-18T11:14:35.914Z,101887.00
2022-10-18T11:17:12.956Z,101884.00
2022-10-18T11:19:51.223Z,101879.97
2022-10-18T11:22:26.874Z,101885.41
2022-10-18T11:24:54.733Z,101883.41
2022-10-18T11:27:29.177Z,101874.56
2022-10-18T11:30:19.291Z,101872.50
2022-10-18T11:32:59.433Z,101867.22
2022-10-18T11:35:40.475Z,101867.84
2022-10-18T11:38:22.500Z,101860.41
2022-10-18T11:41:02.171Z,101850.09
2022-10-18T11:44:00.485Z,101853.88
2022-10-18T11:46:47.929Z,101853.44
2022-10-18T11:49:47.201Z,101847.16
2022-10-18T11:52:22.273Z,101839.09
2022-10-18T11:55:02.537Z,101836.75
2022-10-18T11:57:44.498Z,101839.59
2022-10-18T12:00:40.397Z,101834.81
2022-10-18T12:03:26.440Z,101834.34
2022-10-18T12:05:56.603Z,101835.31
2022-10-18T12:08:29.209Z,101835.50
2022-10-18T12:11:05.740Z,101826.44
2022-10-18T12:13:37.802Z,101821.34
2022-10-18T12:16:07.890Z,101806.47
2022-10-18T12:21:30.241Z,101804.22
2022-10-18T12:24:02.392Z,101790.16
2022-10-18T12:26:34.012Z,101798.81
2022-10-18T12:29:14.124Z,101795.00
2022-10-18T12:31:46.747Z,101792.88
2022-10-18T12:34:27.141Z,101781.50
2022-10-18T12:37:21.282Z,101783.78
2022-10-18T12:42:45.059Z,101775.91
2022-10-18T12:45:26.154Z,101768.84
2022-10-18T12:47:54.435Z,101762.34
2022-10-18T12:50:30.337Z,101766.13
2022-10-18T12:53:18.058Z,101758.53
2022-10-18T12:55:47.606Z,101760.09
2022-10-18T12:58:32.010Z,101749.94
2022-10-18T13:01:06.963Z,101742.91
2022-10-18T13:04:00.386Z,101744.25
2022-10-18T13:07:07.871Z,101737.00
2022-10-18T13:09:38.606Z,101737.13
2022-10-18T13:12:51.248Z,101738.81
2022-10-18T13:15:38.690Z,101735.63
2022-10-18T13:18:19.698Z,101727.84
2022-10-18T13:20:55.393Z,101729.19
2022-10-18T13:23:38.395Z,101724.00
2022-10-18T13:26:18.647Z,101728.50
2022-10-18T13:28:54.889Z,101720.19
2022-10-18T13:31:29.259Z,101721.13
2022-10-18T13:34:17.306Z,101711.59
2022-10-18T13:36:45.164Z,101703.84
2022-10-18T13:39:21.140Z,101711.66
2022-10-18T13:42:29.557Z,101705.31
2022-10-18T13:45:38.798Z,101691.97
2022-10-18T13:48:42.467Z,101695.00
2022-10-18T13:51:31.422Z,101693.03
2022-10-18T13:54:05.585Z,101690.44
2022-10-18T13:57:11.343Z,101687.88
2022-10-18T13:59:53.004Z,101688.03
2022-10-18T14:02:51.828Z,101676.75
2022-10-18T14:05:42.910Z,101670.88
2022-10-18T14:08:17.781Z,101675.81
2022-10-18T14:11:02.544Z,101667.63
2022-10-18T14:13:39.834Z,101659.56
2022-10-18T14:16:11.909Z,101662.50
2022-10-18T14:18:43.746Z,101654.63
2022-10-18T14:21:22.036Z,101650.66
2022-10-18T14:23:52.058Z,101641.78
2022-10-18T14:26:22.781Z,101640.19
2022-10-18T14:29:04.228Z,101643.50
2022-10-18T14:31:32.133Z,101651.91
2022-10-18T14:34:00.480Z,101641.25
2022-10-18T14:36:31.702Z,101643.13
2022-10-18T14:39:02.515Z,101637.50
2022-10-18T14:41:31.529Z,101629.56
2022-10-18T14:44:18.483Z,101627.22
2022-10-18T14:46:48.326Z,101633.53
2022-10-18T14:49:17.096Z,101627.44
2022-10-18T14:51:46.591Z,101620.94
2022-10-18T14:54:18.449Z,101616.50
2022-10-18T14:56:46.939Z,101625.00
2022-10-18T14:59:20.238Z,101620.78
2022-10-18T15:01:54.910Z,101613.91
2022-10-18T15:04:27.777Z,101608.09
2022-10-18T15:06:56.908Z,101606.63
2022-10-18T15:09:26.414Z,101603.91
2022-10-18T15:11:57.736Z,101604.88
2022-10-18T15:14:28.364Z,101607.13
2022-10-18T15:17:01.029Z,101603.41
2022-10-18T15:19:34.187Z,101595.38
2022-10-18T15:22:30.201Z,101605.13
2022-10-18T15:25:12.638Z,101599.69
2022-10-18T15:30:16.402Z,101608.97
2022-10-18T15:32:50.502Z,101608.47
2022-10-18T15:35:25.697Z,101609.94
2022-10-18T15:37:54.623Z,101608.09
2022-10-18T15:40:40.720Z,101594.03
2022-10-18T15:43:37.113Z,101583.56
2022-10-18T15:46:06.907Z,101592.41
2022-10-18T15:48:38.835Z,101589.22
2022-10-18T15:51:08.020Z,101594.91
2022-10-18T15:53:46.789Z,101595.66
2022-10-18T15:56:31.813Z,101596.63
2022-10-18T15:59:01.137Z,101598.47
2022-10-18T16:01:35.392Z,101602.16
2022-10-18T16:04:08.990Z,101591.44
2022-10-18T16:06:38.510Z,101589.84
2022-10-18T16:09:06.613Z,101590.44
2022-10-18T16:11:35.640Z,101586.53
2022-10-18T16:14:03.481Z,101594.25
2022-10-18T16:16:31.451Z,101592.31
2022-10-18T16:18:59.369Z,101595.41
2022-10-18T16:21:29.357Z,101595.16
2022-10-18T16:23:57.639Z,101586.38
2022-10-18T16:26:26.329Z,101584.16
2022-10-18T16:28:57.146Z,101581.44
2022-10-18T16:31:26.920Z,101575.03
2022-10-18T16:33:55.856Z,101574.75
2022-10-18T16:36:25.923Z,101574.34
2022-10-18T16:38:54.904Z,101570.44
2022-10-18T16:41:22.994Z,101572.59
2022-10-18T16:43:51.417Z,101573.06
2022-10-18T16:46:22.896Z,101562.38
2022-10-18T16:48:52.469Z,101573.34
2022-10-18T16:51:20.930Z,101574.44
2022-10-18T16:53:48.945Z,101572.44
2022-10-18T16:56:18.885Z,101575.78
2022-10-18T16:58:47.349Z,101571.38
2022-10-18T17:01:16.927Z,101570.84
2022-10-18T17:03:46.271Z,101575.41
2022-10-18T17:06:17.878Z,101577.34
2022-10-18T17:08:46.165Z,101575.78
2022-10-18T17:11:15.812Z,101569.63
2022-10-18T17:13:43.915Z,101576.00
2022-10-18T17:16:24.067Z,101573.44
2022-10-18T17:18:53.354Z,101578.69
2022-10-18T17:21:21.273Z,101572.75
2022-10-18T17:23:49.497Z,101582.09
2022-10-18T17:26:34.016Z,101575.88
2022-10-18T17:29:04.678Z,101584.50
2022-10-18T17:31:33.201Z,101580.75
2022-10-18T17:34:02.413Z,101568.91
2022-10-18T17:36:30.910Z,101573.09
2022-10-18T17:38:59.133Z,101585.50
2022-10-18T17:41:27.175Z,101578.81
2022-10-18T17:43:54.981Z,101581.63
2022-10-18T17:46:23.605Z,101577.84
2022-10-18T17:48:51.384Z,101574.88
2022-10-18T17:51:20.436Z,101572.53
2022-10-18T17:53:48.294Z,101572.94
2022-10-18T17:56:16.795Z,101557.16
2022-10-18T17:58:45.267Z,101565.28
2022-10-18T18:01:15.045Z,101559.69
2022-10-18T18:03:42.889Z,101563.88
2022-10-18T18:06:18.602Z,101558.47
2022-10-18T18:08:48.708Z,101556.00
2022-10-18T18:11:18.125Z,101563.03
2022-10-18T18:13:46.038Z,101560.03
2022-10-18T18:16:16.448Z,101561.78
2022-10-18T18:18:44.347Z,101561.78
2022-10-18T18:21:12.637Z,101565.06
2022-10-18T18:23:40.553Z,101559.63
2022-10-18T18:26:10.317Z,101556.81
2022-10-18T18:28:38.379Z,101548.88
2022-10-18T18:31:07.545Z,101553.50
2022-10-18T18:33:35.482Z,101565.13
2022-10-18T18:36:04.789Z,101568.06
2022-10-18T18:38:33.377Z,101563.09
2022-10-18T18:41:06.050Z,101561.16
2022-10-18T18:43:35.606Z,101554.00
2022-10-18T18:46:03.391Z,101567.06
2022-10-18T18:48:33.224Z,101578.25
2022-10-18T18:51:01.457Z,101569.09
2022-10-18T18:53:29.935Z,101563.28
2022-10-18T18:56:02.875Z,101565.63
2022-10-18T18:58:30.561Z,101566.38
2022-10-18T19:00:59.673Z,101566.31
2022-10-18T19:03:27.407Z,101565.53
2022-10-18T19:06:03.563Z,101559.34
2022-10-18T19:08:31.232Z,101560.28
2022-10-18T19:10:58.978Z,101563.84
2022-10-18T19:13:26.654Z,101565.13
2022-10-18T19:16:18.073Z,101561.53
2022-10-18T19:18:51.475Z,101565.69
2022-10-18T19:21:19.989Z,101565.69
2022-10-18T19:23:47.754Z,101560.91
2022-10-18T19:26:24.629Z,101557.94
2022-10-18T19:28:52.931Z,101554.88
2022-10-18T19:31:22.401Z,101557.25
2022-10-18T19:33:59.432Z,101557.00
2022-10-18T19:36:27.912Z,101559.88
2022-10-18T19:38:55.680Z,101555.50
2022-10-18T19:43:51.377Z,101563.13
2022-10-18T19:46:19.183Z,101559.13
2022-10-18T19:48:48.288Z,101554.50
2022-10-18T19:51:20.895Z,101556.22
2022-10-18T19:53:51.802Z,101553.22
2022-10-18T19:56:21.605Z,101559.53
2022-10-18T19:58:49.795Z,101554.06
2022-10-18T20:01:18.388Z,101553.22
2022-10-18T20:03:48.481Z,101553.25
2022-10-18T20:06:16.982Z,101560.19
2022-10-18T20:08:44.828Z,101547.34
2022-10-18T20:11:14.923Z,101552.22
2022-10-18T20:13:42.894Z,101543.69
2022-10-18T20:16:12.571Z,101547.94
2022-10-18T20:18:42.934Z,101550.09
2022-10-18T20:21:13.569Z,101547.44
2022-10-18T20:23:42.566Z,101552.69
2022-10-18T20:26:18.311Z,101550.56
2022-10-18T20:28:49.246Z,101549.50
2022-10-18T20:31:19.588Z,101553.56
2022-10-18T20:33:48.648Z,101553.66
2022-10-18T20:36:19.802Z,101554.63
2022-10-18T20:38:48.984Z,101557.88
2022-10-18T20:41:19.113Z,101556.38
2022-10-18T20:43:52.022Z,101562.25
2022-10-18T20:46:19.709Z,101554.31
2022-10-18T20:48:47.765Z,101557.56
2022-10-18T20:51:17.213Z,101553.56
2022-10-18T20:53:45.369Z,101562.25
2022-10-18T20:56:14.901Z,101561.88
2022-10-18T20:58:44.869Z,101560.50
2022-10-18T21:01:14.691Z,101559.19
2022-10-18T21:03:43.993Z,101557.13
2022-10-18T21:06:13.231Z,101552.16
2022-10-18T21:08:43.245Z,101552.25
2022-10-18T21:11:11.306Z,101555.28
2022-10-18T21:13:40.730Z,101551.00
2022-10-18T21:16:08.836Z,101556.44
2022-10-18T21:18:40.266Z,101551.31
2022-10-18T21:21:09.956Z,101538.03
2022-10-18T21:23:37.801Z,101533.22
2022-10-18T21:26:07.920Z,101533.34
2022-10-18T21:28:35.952Z,101530.97
2022-10-18T21:31:12.643Z,101524.50
2022-10-18T21:33:40.757Z,101528.22
2022-10-18T21:36:09.119Z,101517.88
2022-10-18T21:38:37.058Z,101512.53
2022-10-18T21:41:10.856Z,101514.53
2022-10-18T21:43:41.414Z,101510.34
2022-10-18T21:46:10.953Z,101509.28
2022-10-18T21:48:39.738Z,101502.81
2022-10-18T21:51:08.588Z,101511.09
2022-10-18T21:53:36.989Z,101495.16
2022-10-18T21:56:06.246Z,101502.47
2022-10-18T21:58:35.582Z,101495.66
2022-10-18T22:01:07.131Z,101493.25
2022-10-18T22:03:35.004Z,101483.34
2022-10-18T22:06:04.920Z,101486.94
2022-10-18T22:08:32.571Z,101485.03
2022-10-18T22:11:01.025Z,101489.09
2022-10-18T22:13:28.750Z,101485.56
2022-10-18T22:16:00.997Z,101480.69
2022-10-18T22:18:28.697Z,101471.53
2022-10-18T22:20:56.854Z,101475.03
2022-10-18T22:23:24.682Z,101466.13
2022-10-18T22:25:52.405Z,101460.84
2022-10-18T22:28:20.077Z,101457.34
2022-10-18T22:30:48.201Z,101457.31
2022-10-18T22:33:17.261Z,101455.16
2022-10-18T22:35:50.015Z,101452.69
2022-10-18T22:38:17.845Z,101446.19
2022-10-18T22:40:45.629Z,101452.06
2022-10-18T22:43:13.498Z,101456.69
2022-10-18T22:45:41.341Z,101450.94
2022-10-18T22:48:09.073Z,101451.00
2022-10-18T22:50:38.125Z,101453.84
2022-10-18T22:53:05.895Z,101456.56
2022-10-18T22:55:33.624Z,101440.56
2022-10-18T22:58:01.318Z,101441.81
2022-10-18T23:00:29.313Z,101436.00
2022-10-18T23:02:57.117Z,101426.47
2022-10-18T23:05:24.837Z,101415.53
2022-10-18T23:07:53.945Z,101422.47
2022-10-18T23:10:21.641Z,101419.44
2022-10-18T23:12:49.285Z,101419.53
2022-10-18T23:15:17.074Z,101419.44
2022-10-18T23:17:44.741Z,101420.41
2022-10-18T23:20:12.511Z,101419.22
2022-10-18T23:22:40.202Z,101417.91
2022-10-18T23:25:10.166Z,101408.19
2022-10-18T23:27:37.932Z,101401.34
2022-10-18T23:30:06.913Z,101400.66
2022-10-18T23:32:34.918Z,101404.06
2022-10-18T23:35:02.891Z,101401.72
2022-10-18T23:37:30.828Z,101388.94
2022-10-18T23:39:58.672Z,101385.03
2022-10-18T23:42:27.735Z,101387.88
2022-10-18T23:44:55.522Z,101385.59
2022-10-18T23:47:23.210Z,101380.78
2022-10-18T23:49:50.956Z,101377.41
2022-10-18T23:52:18.613Z,101375.97
2022-10-18T23:54:46.364Z,101376.16
2022-10-18T23:57:14.023Z,101374.91
2022-10-18T23:59:43.120Z,101363.97
